LGIR/HER Heraklion "Nikos Kazantzakis"

  • Thread starter Anonymous
  • Ημερομηνία δημιουργίας

LEKPO1A

Moderator
Staff member
Εγγραφή
04/09/2003
Μηνύματα
3.782
Likes
140
Re: LGIR/HER Heraklion Nikos Kazantzakis

Από το in.gr. Τώρα τι εννοούν ακριβώς με το πίστα απογειώσεων, δεν πολυκατάλαβα.

Αργά το μεσημέρι αγρότες του Ηρακλείου και του Λασιθίου κατέλαβαν και το αεροδρόμιο Ηρακλείου «Νίκος Καζαντζάκης», στο πλαίσιο των κινητοποιήσεών τους.

Ομάδες αγροτών εκτός από τον περιβάλλοντα χώρο έφτασαν μέχρι και την πίστα απογειώσεων των αεροσκαφών. Συνολικά ακυρώθηκαν δεκαεπτά πτήσεις. Οι αγρότες παραμένουν στον χώρο του αεροδρομίου μέχρι νωρίς το βράδυ.


http://www.in.gr/news/article.asp?lngEntityID=977613&lngDtrID=244
 

LGIR09

Economy-Class-Member
Εγγραφή
24/10/2006
Μηνύματα
132
Likes
0
Περιοχή
ΗΡΑΚΛΕΙΟ
Re: LGIR/HER Heraklion Nikos Kazantzakis

ΧΑΧΑΧΑΧΑ Πίστα απογειώσεων ε; Πως λέμε τον διάδρομο αεροδιάδρομο....
Όπως και να χει, μέρος των αγροτών παραβίασαν την έξοδο 6, καταστρέφοντας την τζαμαρία ώστε να εισέλθουν στην ΠΙΣΤΑ (APRON), καθώς και κάποια άλλη μερίδα εισέβαλε μέσω της πύλης με τα οχήματά της! Τραβούσαν όλη μέρα σβούρες μέσα στην πίστα, πλησίαζαν τον διάδρομο, έφτασαν στον αποκλεισμό του, αλλά μην φανταστείτε ακρότητες. Η ΕΛ.ΑΣ βέβαια διακοσμητικό στοιχείο. 1 Τζιπ είχε και αυτό για τα μάτια του κόσμου. Αν ήθελαν οι αγρότες θα έπαιρναν κανένα απ τα Jetstream της Sky Express, (τα οποία ήταν σε απόσταση αναπνοής) και θα έφευγαν σαν κύριοι. Η κυρίως μάζα λοιπόν ήταν στην πίστα, υπήρχαν βέβαια και άλλοι, οι οποίοι προτίμησαν την ζεστασιά και τα κομφόρ :cool: του Αεροσταθμού, οπότε την άραξαν εκεί, και έλεγαν ότι απέκλεισαν την πτέρυγα των Αναχωρήσεων Εσωτερικού.
Θα συμφωνήσω με τον φίλο παραπάνω που επισημαίνει ότι αυτά τα πράγματα μόνο στην Ελλάδα γίνονται. Καταλαβαίνω την αγανάκτηση των ανθρώπων και είμαι μαζί τους. Αλλά η ελληνική κυβέρνηση απέδειξε για άλλη μια φορά, ότι δεν είναι σε θέση να προστατέψει έναν Διεθνή Αερολιμένα, ο οποίος μάλιστα συνυπάρχει με στρατιωτική βάση ούτε καν από αγρότες, που να φάμε κανένα ντου από διάφορους "γείτονες"....

Υ.Γ.: Η κατάληψη έληξε, εφόσον το αποφάσισαν τα ηγετικά στελέχη των διαμαρτυρόμενων κατόπιν υποχώρησης μεγάλης μάζας εξ αυτών. Αν δεν αποφάσιζαν πολλοί να αφήσουν την κατάληψη και γυρίσουν σπίτια τους, ακόμα κλειστό θα ήταν το LGIR....
 

aas59

First-Class-Member
Εγγραφή
10/10/2006
Μηνύματα
988
Likes
1
Περιοχή
HER
Αγαπημένη αεροπορική εταιρεία (ICAO Code)
UAE
Πλησιέστερο αεροδρόμιο (ICAO Code)
LGIR
Re: LGIR/HER Heraklion Nikos Kazantzakis

LGIR09":ihx57mj3 said:
Υ.Γ.: Η κατάληψη έληξε, εφόσον το αποφάσισαν τα ηγετικά στελέχη των διαμαρτυρόμενων κατόπιν υποχώρησης μεγάλης μάζας εξ αυτών. Αν δεν αποφάσιζαν πολλοί να αφήσουν την κατάληψη και γυρίσουν σπίτια τους, ακόμα κλειστό θα ήταν το LGIR....

Ξέχασες να αναφέρεις και την έντονη αποδοκιμασία βουλευτή της συμπολίτευσης (οι άλλοι σφύριζαν αδιάφορα...) , ιδιαίτερα μάλιστα μετά την εμφάνιση διαφόρων Καλάσνικοφ στην πίστα................
 

LGIR09

Economy-Class-Member
Εγγραφή
24/10/2006
Μηνύματα
132
Likes
0
Περιοχή
ΗΡΑΚΛΕΙΟ
Re: LGIR/HER Heraklion Nikos Kazantzakis

aas59":w6xstpba said:
μετά την εμφάνιση διαφόρων Καλάσνικοφ στην πίστα................

Ναι φίλε μου αυτό πράγματι ξέχασα να το αναφέρω παραπάνω. Όντως παρατηρήθηκε και αυτό.... Καλάσνικοφ και πολλά άλλα "κομπιουτεράκια" στην πίστα του 2ου σημαντικότερου αερολιμένα της χώρας. Τα πολλά λόγια είναι περιττά.
 

tasos-SMI

Business-Class-Member
Εγγραφή
17/01/2010
Μηνύματα
319
Likes
8
Πλησιέστερο αεροδρόμιο (ICAO Code)
LGAV
Re: LGIR/HER Heraklion Nikos Kazantzakis

Έχω παρατηρήσει οτι ο διάδρομος στο Nίκος Καζαντζάκης είναι λίγο κυματοειδής!!! Το αεροπλάνο όταν επιταχύνει για την απογείωση είναι λες και κάνεις τραμπάλα!! (για όσους βλέπουν Ράδιο-αρβύλα η απογείωση είναι στυλ Οοουυυ Σουλτάν...) Κατά πόσο είναι ασφαλές κάτι τέτοιο ?? Δεν επηρεάζεται η κατευθηντικότητα του αεροσκάφους?? (πιστεύω να το έθεσα σωστά :D )
 

KOSTASXANIA

Low-Cost-Class-Member
Εγγραφή
12/11/2008
Μηνύματα
77
Likes
3
Αγαπημένη αεροπορική εταιρεία (ICAO Code)
aee
Πλησιέστερο αεροδρόμιο (ICAO Code)
lgsa
ΗΡΑΚΛΕΙΟ ΑΚΥΡΩΣΕΙΣ ΠΤΗΣΕΩΝ

Πέμπτη 4-3 όλες οι πτήσεις έχουν ακυρωθεί από και προς το αεροδρόμιο ηρακλείου λόγο κακών καιρικών συνθηκών. στο 2010 κ μια μεγάλη πόλη όπως το ηράκλειο έχει ένα αεροδρόμιο το όποιο με λίγο νοτιά κλείνει. μέχρι κ η ομίχλη του Μακεδονία υποφέρεται .Η OLYMPIC AIR πάντως έδωσε κουπόνια για δωρεάν γεύμα σε αντίθεση με την ΑΙΓΑΙΟΥ που δεν έκανε τίποτα.....
 

makedonas

Concorde-Class-Member
Εγγραφή
06/09/2003
Μηνύματα
5.934
Likes
0
Website
avianewsgr.blogspot.com
Αγαπημένη αεροπορική εταιρεία (ICAO Code)
RUS
Πλησιέστερο αεροδρόμιο (ICAO Code)
EDDM
Τι λεει ρε... (Α.Κ.)

Και για να μην εχουμε παρεξηγησεις δεν ειναι υποχρεωμενη να δωσει μιας και δεν ηταν δικια της υπαιτιοτητα.. Τωρα, το "λιγος νοτιας" ειναι λιγο υποκειμενικη κριση. Διοτι οι πιλοτοι ξερουν τα ορια του σκαφους, τα δικα τους, του διαδρομου κλπ. Αν την ωρα που παει να ακουμπησει το σκαφος υπαρξει ενα windshear και το διαολοστειλει, δεν προκειται την καταστροφη που (ισως δημιουργηθει) να την πληρωσεις εσυ, αλλα ουτε και κανενας αλλος "αγανακτισμενος". :rant:
 

dzografi

Low-Cost-Class-Member
Εγγραφή
09/09/2009
Μηνύματα
50
Likes
0
Αγαπημένη αεροπορική εταιρεία (ICAO Code)
OAL
Πλησιέστερο αεροδρόμιο (ICAO Code)
LGTS
Re: ΗΡΑΚΛΕΙΟ ΑΚΥΡΩΣΕΙΣ ΠΤΗΣΕΩΝ

Καλησπέρα,
Επειδή κατάγομαι από το Ηράκλειο και τόσα χρόνια που έχω ζήσει το "Νίκος Καζαντζάκης" μπορώ να πω ότι δεν έχει κλείσει και πολλές φορές. Σίγουρα πιο λίγες από το "Μακεδονία"!

KOSTASXANIA":9hdynzh5 said:
στο 2010 κ μια μεγάλη πόλη όπως το ηράκλειο έχει ένα αεροδρόμιο το όποιο με λίγο νοτιά κλείνει.

Παραθέτω όλα τα METAR reports από τις 08:20 έως 20:20 τοπική ώρα όπου και σημειώθηκαν τα έντονα καιρικά φαινόμενα.

LGIR 041820Z 17017G27KT 9999 FEW025 SCT100 BKN180 20/09 Q1004 NOSIG
LGIR 041750Z 16017G28KT 9999 FEW025 SCT100 BKN180 20/09 Q1004 NOSIG
LGIR 041720Z 17017G28KT 9999 FEW025 SCT100 BKN180 20/09 Q1003 NOSIG
LGIR 041650Z 17021G32KT 9999 FEW025 SCT100 OVC180 20/09 Q1003 NOSIG
LGIR 041620Z 17021G36KT 9999 FEW025 SCT100 BKN180 21/09 Q1003 NOSIG
LGIR 041550Z 18027G43KT 9999 FEW025 SCT100 BKN180 20/09 Q1003 NOSIG
LGIR 041520Z 18028G46KT 9999 FEW025 SCT100 BKN180 21/08 Q1003 NOSIG
LGIR 041450Z 18033G46KT 9999 FEW025 SCT100 BKN180 21/08 Q1003 NOSIG
LGIR 041420Z 19030G46KT 9999 FEW025 SCT100 BKN180 21/09 Q1004 NOSIG
LGIR 041350Z 18038G54KT 9999 FEW025 SCT100 BKN200 22/08 Q1002
LGIR 041320Z 19033G48KT 9999 FEW025 SCT100 BKN200 21/09 Q1003 NOSIG
LGIR 041250Z 18025G43KT 9999 FEW025 SCT100 BKN180 21/10 Q1005 NOSIG
LGIR 041220Z 19032G49KT 9999 FEW025 SCT100 BKN180 21/08 Q1005 NOSIG
LGIR 041150Z 18031G44KT 9999 FEW025 SCT100 BKN180 22/07 Q1005 NOSIG
LGIR 041120Z 18032G43KT 9999 FEW025 SCT100 BKN180 23/09 Q1008 NOSIG
LGIR 041050Z 18027G38KT 9999 FEW025 SCT100 BKN180 23/09 Q1008 NOSIG
LGIR 041020Z 19028G42KT 9999 FEW025 SCT100 BKN180 22/06 Q1008 NOSIG
LGIR 040950Z 19026G40KT 9999 FEW025 SCT100 BKN180 22/06 Q1008 NOSIG
LGIR 040920Z 18027G39KT 9999 FEW025 BKN180 20/10 Q1009 NOSIG
LGIR 040850Z 18025G37KT 9999 FEW025 BKN180 20/10 Q1009 NOSIG
LGIR 040820Z 16023G33KT 9999 FEW025 BKN180 18/11 Q1010 NOSIG
LGIR 040750Z 19026G36KT 9999 FEW025 BKN180 18/11 Q1010 NOSIG
LGIR 040720Z 19027G38KT 9999 FEW025 SCT100 BKN180 16/10 Q1011 NOSIG
LGIR 040650Z 16028G38KT 9999 FEW025 SCT100 BKN180 16/10 Q1011 NOSIG
LGIR 040620Z 17027G38KT 9999 FEW025 SCT100 BKN180 16/10 Q1011 NOSIG

Συγγνώμη αλλά άνεμος από 180 μοίρες εντάσεως 38 κόμβων με ριπές που αγγίζουν τους 54 κόμβους (από το METAR που έχω σε Bold) ΔΕΝ είναι "λίγος νοτιάς"...
Και μην ξεχνάμε ότι η διεύθυνση του διαδρόμου στο Ηράκλειο είναι 272 μοίρες για τον 27 και 092 για τον 09 (εντελώς κάθετα στην διεύθυνση του ανέμου) επομένως μιλάμε για 38 κόμβους crosswind!!!!!
Αμφιβάλλω εάν τα πληρώματα θα επιχειρούσαν προσγείωση με τέτοιο άνεμο σε οποιοδήποτε αεροδρόμιο...

Φιλικά
Δημήτρης
 

tasos-SMI

Business-Class-Member
Εγγραφή
17/01/2010
Μηνύματα
319
Likes
8
Πλησιέστερο αεροδρόμιο (ICAO Code)
LGAV
Re: LGIR/HER Heraklion Nikos Kazantzakis

Επειδή μένω στο Ηράκλειο....Ο άνεμος χθές δεν ήταν λίγος....Γινόταν πανικός...Το δείχνει και το METAR αυτό!! Οπότε μην τρελαινόμαστε...δεν νομίζω να έχει κάποιος πρόβλημα που δεν προσγειώθηκαν χθές....
 

TeaCHeRaKiS

Economy-Class-Member
Εγγραφή
14/08/2005
Μηνύματα
220
Likes
0
Περιοχή
On board
Re: LGIR/HER Heraklion Nikos Kazantzakis

Μαλιστα... 38 G 54!!! Γενικως ομως το αεροδρομιο του Ηρακλειου οντας καθετο στους νοτιαδες, ακομη κ σε περιπτωσεις που προσγειωνονται με νοτια θελει αρκετη δεξιοτεχνια, ιδιαιτερα στις προσγειωσεις που γινονται απο τον 9.

Προσωπικα κ μενα θα μου αρεσε να μπορω να προσγειωνομαι οποτε χρειαζεται στην πολη μου, αλλα αν ειναι να θεσω σε κινδυνο τη ζωη μου καλυτερα να περιμενω να κοπασει ο νοτιας.

Σε οτι αφορα αυτο με το οτι το "2010 δεν επιτρεπεται να υπαρχει αεροδρομιο που κλεινει", θα επρεπε ολοι οι φορεις να ειχαν κοινη αποψη επι του θεματος "Αεροδρομιο Καστελιου" ωστε να ειχε ηδη ξεκινησει, εαν οχι ολοκληρωθει μεχρι σημερα η κατασκευη του νεου αεροδρομιου. Υπομονη. Οι αλλαγες ερχονται... εαν μας το επιτρεψει η πτωχευμενη μας οικονομια.
 
Top